sensor_id;sensor_type;location;lat;lon;timestamp;P1;durP1;ratioP1;P2;durP2;ratioP2
47784;SDS011;35233;55.686;37.848;2023-02-02T00:00:10;11.88;;;8.20;;
47784;SDS011;35233;55.686;37.848;2023-02-02T00:02:36;10.80;;;7.55;;
47784;SDS011;35233;55.686;37.848;2023-02-02T00:05:02;11.70;;;7.35;;
47784;SDS011;35233;55.686;37.848;2023-02-02T00:07:27;11.48;;;7.68;;
47784;SDS011;35233;55.686;37.848;2023-02-02T00:09:53;12.13;;;7.60;;
47784;SDS011;35233;55.686;37.848;2023-02-02T00:12:18;11.52;;;8.27;;
47784;SDS011;35233;55.686;37.848;2023-02-02T00:14:44;10.75;;;7.57;;
47784;SDS011;35233;55.686;37.848;2023-02-02T00:17:09;10.07;;;7.10;;
47784;SDS011;35233;55.686;37.848;2023-02-02T00:19:35;11.77;;;8.15;;
47784;SDS011;35233;55.686;37.848;2023-02-02T00:22:01;11.77;;;7.80;;
47784;SDS011;35233;55.686;37.848;2023-02-02T00:24:26;10.88;;;7.82;;
47784;SDS011;35233;55.686;37.848;2023-02-02T00:26:53;11.75;;;8.25;;
47784;SDS011;35233;55.686;37.848;2023-02-02T00:29:21;12.32;;;8.30;;
47784;SDS011;35233;55.686;37.848;2023-02-02T00:31:49;10.70;;;7.78;;
47784;SDS011;35233;55.686;37.848;2023-02-02T00:34:15;11.93;;;8.32;;
47784;SDS011;35233;55.686;37.848;2023-02-02T00:36:41;10.80;;;7.38;;
47784;SDS011;35233;55.686;37.848;2023-02-02T00:39:08;12.00;;;7.85;;
47784;SDS011;35233;55.686;37.848;2023-02-02T00:41:35;11.48;;;7.65;;
47784;SDS011;35233;55.686;37.848;2023-02-02T00:44:01;12.60;;;7.80;;
47784;SDS011;35233;55.686;37.848;2023-02-02T00:46:45;11.13;;;7.63;;
47784;SDS011;35233;55.686;37.848;2023-02-02T00:49:11;10.65;;;7.43;;
47784;SDS011;35233;55.686;37.848;2023-02-02T00:51:46;11.30;;;8.07;;
47784;SDS011;35233;55.686;37.848;2023-02-02T00:54:21;10.50;;;7.60;;
47784;SDS011;35233;55.686;37.848;2023-02-02T00:56:46;12.40;;;8.13;;
47784;SDS011;35233;55.686;37.848;2023-02-02T00:59:12;13.00;;;8.70;;
47784;SDS011;35233;55.686;37.848;2023-02-02T01:01:37;12.82;;;8.52;;
47784;SDS011;35233;55.686;37.848;2023-02-02T01:04:03;11.48;;;7.85;;
47784;SDS011;35233;55.686;37.848;2023-02-02T01:06:28;10.90;;;7.20;;
47784;SDS011;35233;55.686;37.848;2023-02-02T01:08:55;11.88;;;7.80;;
47784;SDS011;35233;55.686;37.848;2023-02-02T01:11:21;14.10;;;7.53;;
47784;SDS011;35233;55.686;37.848;2023-02-02T01:13:47;11.23;;;8.35;;
47784;SDS011;35233;55.686;37.848;2023-02-02T01:16:12;12.35;;;7.95;;
47784;SDS011;35233;55.686;37.848;2023-02-02T01:18:38;11.93;;;7.93;;
47784;SDS011;35233;55.686;37.848;2023-02-02T01:21:08;10.93;;;7.60;;
47784;SDS011;35233;55.686;37.848;2023-02-02T01:23:36;11.50;;;7.95;;
47784;SDS011;35233;55.686;37.848;2023-02-02T01:26:04;10.18;;;7.15;;
47784;SDS011;35233;55.686;37.848;2023-02-02T01:28:31;12.18;;;8.18;;
47784;SDS011;35233;55.686;37.848;2023-02-02T01:30:57;10.75;;;7.80;;
47784;SDS011;35233;55.686;37.848;2023-02-02T01:33:23;12.15;;;7.82;;
47784;SDS011;35233;55.686;37.848;2023-02-02T01:35:52;12.57;;;8.23;;
47784;SDS011;35233;55.686;37.848;2023-02-02T01:38:20;12.57;;;8.40;;
47784;SDS011;35233;55.686;37.848;2023-02-02T01:40:47;11.65;;;8.48;;
47784;SDS011;35233;55.686;37.848;2023-02-02T01:45:57;13.38;;;8.50;;
47784;SDS011;35233;55.686;37.848;2023-02-02T01:48:24;12.07;;;8.32;;
47784;SDS011;35233;55.686;37.848;2023-02-02T01:50:56;10.57;;;7.80;;
47784;SDS011;35233;55.686;37.848;2023-02-02T01:53:25;15.07;;;9.10;;
47784;SDS011;35233;55.686;37.848;2023-02-02T01:55:51;13.70;;;8.90;;
47784;SDS011;35233;55.686;37.848;2023-02-02T01:58:23;11.85;;;8.15;;
47784;SDS011;35233;55.686;37.848;2023-02-02T02:00:52;13.15;;;8.40;;
47784;SDS011;35233;55.686;37.848;2023-02-02T02:03:19;12.52;;;8.98;;
47784;SDS011;35233;55.686;37.848;2023-02-02T02:05:48;12.48;;;8.32;;
47784;SDS011;35233;55.686;37.848;2023-02-02T02:08:17;12.38;;;8.25;;
47784;SDS011;35233;55.686;37.848;2023-02-02T02:10:48;12.95;;;8.40;;
47784;SDS011;35233;55.686;37.848;2023-02-02T02:13:14;11.35;;;8.52;;
47784;SDS011;35233;55.686;37.848;2023-02-02T02:16:04;13.73;;;8.55;;
47784;SDS011;35233;55.686;37.848;2023-02-02T02:34:13;13.40;;;8.20;;
47784;SDS011;35233;55.686;37.848;2023-02-02T02:37:06;14.18;;;8.43;;
47784;SDS011;35233;55.686;37.848;2023-02-02T02:39:42;12.35;;;7.90;;
47784;SDS011;35233;55.686;37.848;2023-02-02T02:42:16;12.93;;;8.52;;
47784;SDS011;35233;55.686;37.848;2023-02-02T02:44:45;13.80;;;8.75;;
47784;SDS011;35233;55.686;37.848;2023-02-02T02:47:13;13.20;;;8.52;;
47784;SDS011;35233;55.686;37.848;2023-02-02T02:49:42;14.18;;;8.57;;
47784;SDS011;35233;55.686;37.848;2023-02-02T02:52:09;13.43;;;7.78;;
47784;SDS011;35233;55.686;37.848;2023-02-02T02:54:36;13.10;;;8.88;;
47784;SDS011;35233;55.686;37.848;2023-02-02T02:57:20;12.93;;;8.45;;
47784;SDS011;35233;55.686;37.848;2023-02-02T03:03:04;11.98;;;8.38;;
47784;SDS011;35233;55.686;37.848;2023-02-02T03:11:02;13.77;;;8.80;;
47784;SDS011;35233;55.686;37.848;2023-02-02T03:13:30;12.90;;;8.80;;
47784;SDS011;35233;55.686;37.848;2023-02-02T03:15:56;15.32;;;9.43;;
47784;SDS011;35233;55.686;37.848;2023-02-02T03:18:22;12.70;;;8.70;;
47784;SDS011;35233;55.686;37.848;2023-02-02T03:20:51;12.85;;;8.65;;
47784;SDS011;35233;55.686;37.848;2023-02-02T03:23:17;13.60;;;9.52;;
47784;SDS011;35233;55.686;37.848;2023-02-02T03:25:42;13.23;;;8.57;;
47784;SDS011;35233;55.686;37.848;2023-02-02T03:28:08;13.13;;;8.65;;
47784;SDS011;35233;55.686;37.848;2023-02-02T03:30:34;13.93;;;9.23;;
47784;SDS011;35233;55.686;37.848;2023-02-02T03:33:01;13.40;;;9.25;;
47784;SDS011;35233;55.686;37.848;2023-02-02T03:35:27;14.07;;;9.35;;
47784;SDS011;35233;55.686;37.848;2023-02-02T03:37:52;12.65;;;8.80;;
47784;SDS011;35233;55.686;37.848;2023-02-02T03:40:18;12.85;;;8.75;;
47784;SDS011;35233;55.686;37.848;2023-02-02T03:42:43;12.95;;;8.98;;
47784;SDS011;35233;55.686;37.848;2023-02-02T03:45:09;13.10;;;8.85;;
47784;SDS011;35233;55.686;37.848;2023-02-02T03:47:35;12.88;;;8.98;;
47784;SDS011;35233;55.686;37.848;2023-02-02T03:50:01;13.20;;;8.85;;
47784;SDS011;35233;55.686;37.848;2023-02-02T03:52:26;14.00;;;8.65;;
47784;SDS011;35233;55.686;37.848;2023-02-02T03:54:52;14.07;;;9.43;;
47784;SDS011;35233;55.686;37.848;2023-02-02T03:57:17;14.90;;;9.05;;
47784;SDS011;35233;55.686;37.848;2023-02-02T03:59:43;12.88;;;8.77;;
47784;SDS011;35233;55.686;37.848;2023-02-02T04:02:11;14.50;;;8.85;;
47784;SDS011;35233;55.686;37.848;2023-02-02T04:04:37;14.52;;;9.38;;
47784;SDS011;35233;55.686;37.848;2023-02-02T04:07:02;13.00;;;9.10;;
47784;SDS011;35233;55.686;37.848;2023-02-02T04:09:31;12.27;;;8.85;;
47784;SDS011;35233;55.686;37.848;2023-02-02T04:11:56;13.73;;;9.68;;
47784;SDS011;35233;55.686;37.848;2023-02-02T04:14:22;12.40;;;8.60;;
47784;SDS011;35233;55.686;37.848;2023-02-02T04:16:47;12.82;;;8.75;;
47784;SDS011;35233;55.686;37.848;2023-02-02T04:19:13;14.13;;;10.15;;
47784;SDS011;35233;55.686;37.848;2023-02-02T04:21:39;13.85;;;9.50;;
47784;SDS011;35233;55.686;37.848;2023-02-02T04:24:08;13.93;;;9.40;;
47784;SDS011;35233;55.686;37.848;2023-02-02T04:26:35;16.15;;;9.68;;
47784;SDS011;35233;55.686;37.848;2023-02-02T04:29:01;13.95;;;9.75;;
47784;SDS011;35233;55.686;37.848;2023-02-02T04:31:26;14.88;;;10.48;;
47784;SDS011;35233;55.686;37.848;2023-02-02T04:33:53;14.40;;;9.48;;
47784;SDS011;35233;55.686;37.848;2023-02-02T04:36:19;14.05;;;9.90;;
47784;SDS011;35233;55.686;37.848;2023-02-02T04:38:48;15.60;;;10.50;;
47784;SDS011;35233;55.686;37.848;2023-02-02T04:41:14;14.82;;;10.68;;
47784;SDS011;35233;55.686;37.848;2023-02-02T04:43:42;15.95;;;11.13;;
47784;SDS011;35233;55.686;37.848;2023-02-02T04:46:08;16.50;;;11.25;;
47784;SDS011;35233;55.686;37.848;2023-02-02T04:48:34;15.27;;;11.00;;
47784;SDS011;35233;55.686;37.848;2023-02-02T04:51:04;19.27;;;11.98;;
47784;SDS011;35233;55.686;37.848;2023-02-02T04:53:31;16.48;;;11.70;;
47784;SDS011;35233;55.686;37.848;2023-02-02T04:55:57;16.85;;;12.00;;
47784;SDS011;35233;55.686;37.848;2023-02-02T04:58:29;17.33;;;11.68;;
47784;SDS011;35233;55.686;37.848;2023-02-02T05:00:54;17.85;;;12.35;;
47784;SDS011;35233;55.686;37.848;2023-02-02T05:03:19;19.15;;;11.70;;
47784;SDS011;35233;55.686;37.848;2023-02-02T05:05:45;15.90;;;10.73;;
47784;SDS011;35233;55.686;37.848;2023-02-02T05:08:11;17.73;;;11.43;;
47784;SDS011;35233;55.686;37.848;2023-02-02T05:10:39;20.05;;;10.95;;
47784;SDS011;35233;55.686;37.848;2023-02-02T05:13:09;17.92;;;11.93;;
47784;SDS011;35233;55.686;37.848;2023-02-02T05:15:34;17.45;;;11.70;;
47784;SDS011;35233;55.686;37.848;2023-02-02T05:18:00;18.27;;;11.13;;
47784;SDS011;35233;55.686;37.848;2023-02-02T05:20:25;17.02;;;11.73;;
47784;SDS011;35233;55.686;37.848;2023-02-02T05:22:51;18.30;;;11.02;;
47784;SDS011;35233;55.686;37.848;2023-02-02T05:25:16;19.10;;;11.88;;
47784;SDS011;35233;55.686;37.848;2023-02-02T05:27:42;19.77;;;12.23;;
47784;SDS011;35233;55.686;37.848;2023-02-02T05:30:09;16.23;;;11.40;;
47784;SDS011;35233;55.686;37.848;2023-02-02T05:32:36;17.63;;;11.88;;
47784;SDS011;35233;55.686;37.848;2023-02-02T05:35:01;16.90;;;11.25;;
47784;SDS011;35233;55.686;37.848;2023-02-02T05:37:27;16.13;;;11.45;;
47784;SDS011;35233;55.686;37.848;2023-02-02T05:39:52;16.55;;;11.80;;
47784;SDS011;35233;55.686;37.848;2023-02-02T05:42:18;17.33;;;11.38;;
47784;SDS011;35233;55.686;37.848;2023-02-02T05:44:44;17.83;;;11.43;;
47784;SDS011;35233;55.686;37.848;2023-02-02T05:47:09;17.55;;;11.75;;
47784;SDS011;35233;55.686;37.848;2023-02-02T05:49:35;17.73;;;11.77;;
47784;SDS011;35233;55.686;37.848;2023-02-02T05:52:00;19.70;;;12.25;;
47784;SDS011;35233;55.686;37.848;2023-02-02T05:54:26;18.70;;;12.60;;
47784;SDS011;35233;55.686;37.848;2023-02-02T05:56:52;17.55;;;11.85;;
47784;SDS011;35233;55.686;37.848;2023-02-02T05:59:19;21.08;;;13.77;;
47784;SDS011;35233;55.686;37.848;2023-02-02T06:01:46;20.27;;;14.73;;
47784;SDS011;35233;55.686;37.848;2023-02-02T06:04:12;20.15;;;13.68;;
47784;SDS011;35233;55.686;37.848;2023-02-02T06:06:38;18.77;;;12.75;;
47784;SDS011;35233;55.686;37.848;2023-02-02T06:09:05;20.65;;;12.30;;
47784;SDS011;35233;55.686;37.848;2023-02-02T06:11:31;18.23;;;12.30;;
47784;SDS011;35233;55.686;37.848;2023-02-02T06:13:57;18.30;;;12.70;;
47784;SDS011;35233;55.686;37.848;2023-02-02T06:16:23;17.30;;;11.98;;
47784;SDS011;35233;55.686;37.848;2023-02-02T06:18:50;17.15;;;11.48;;
47784;SDS011;35233;55.686;37.848;2023-02-02T06:21:19;19.98;;;11.90;;
47784;SDS011;35233;55.686;37.848;2023-02-02T06:23:47;16.73;;;11.35;;
47784;SDS011;35233;55.686;37.848;2023-02-02T06:26:16;17.02;;;11.57;;
47784;SDS011;35233;55.686;37.848;2023-02-02T06:28:42;18.13;;;11.90;;
47784;SDS011;35233;55.686;37.848;2023-02-02T06:31:11;16.63;;;11.98;;
47784;SDS011;35233;55.686;37.848;2023-02-02T06:33:38;15.75;;;11.75;;
47784;SDS011;35233;55.686;37.848;2023-02-02T06:36:04;15.50;;;11.13;;
47784;SDS011;35233;55.686;37.848;2023-02-02T06:38:30;14.68;;;10.75;;
47784;SDS011;35233;55.686;37.848;2023-02-02T06:41:00;16.80;;;11.15;;
47784;SDS011;35233;55.686;37.848;2023-02-02T06:43:26;15.57;;;10.65;;
47784;SDS011;35233;55.686;37.848;2023-02-02T06:45:52;14.88;;;10.50;;
47784;SDS011;35233;55.686;37.848;2023-02-02T06:48:18;15.30;;;10.82;;
47784;SDS011;35233;55.686;37.848;2023-02-02T06:50:43;14.40;;;10.65;;
47784;SDS011;35233;55.686;37.848;2023-02-02T06:53:09;16.60;;;10.55;;
47784;SDS011;35233;55.686;37.848;2023-02-02T06:55:34;15.75;;;11.38;;
47784;SDS011;35233;55.686;37.848;2023-02-02T06:58:00;14.63;;;10.75;;
47784;SDS011;35233;55.686;37.848;2023-02-02T07:00:26;15.27;;;11.40;;
47784;SDS011;35233;55.686;37.848;2023-02-02T07:02:53;17.30;;;12.13;;
47784;SDS011;35233;55.686;37.848;2023-02-02T07:05:19;15.20;;;11.82;;
47784;SDS011;35233;55.686;37.848;2023-02-02T07:07:45;16.55;;;11.75;;
47784;SDS011;35233;55.686;37.848;2023-02-02T07:10:11;18.00;;;11.73;;
47784;SDS011;35233;55.686;37.848;2023-02-02T07:12:37;19.10;;;12.57;;
47784;SDS011;35233;55.686;37.848;2023-02-02T07:15:03;15.73;;;11.80;;
47784;SDS011;35233;55.686;37.848;2023-02-02T07:17:28;16.20;;;11.93;;
47784;SDS011;35233;55.686;37.848;2023-02-02T07:19:55;16.15;;;11.98;;
47784;SDS011;35233;55.686;37.848;2023-02-02T07:22:21;16.02;;;11.38;;
47784;SDS011;35233;55.686;37.848;2023-02-02T07:24:46;15.93;;;12.02;;
47784;SDS011;35233;55.686;37.848;2023-02-02T07:27:12;15.23;;;11.40;;
47784;SDS011;35233;55.686;37.848;2023-02-02T07:29:38;18.63;;;12.32;;
47784;SDS011;35233;55.686;37.848;2023-02-02T07:32:03;17.85;;;12.45;;
47784;SDS011;35233;55.686;37.848;2023-02-02T07:34:29;17.27;;;12.10;;
47784;SDS011;35233;55.686;37.848;2023-02-02T07:36:55;16.05;;;11.65;;
47784;SDS011;35233;55.686;37.848;2023-02-02T07:39:21;17.00;;;12.48;;
47784;SDS011;35233;55.686;37.848;2023-02-02T07:41:47;15.15;;;12.00;;
47784;SDS011;35233;55.686;37.848;2023-02-02T07:44:12;16.00;;;11.93;;
47784;SDS011;35233;55.686;37.848;2023-02-02T07:46:40;16.15;;;12.05;;
47784;SDS011;35233;55.686;37.848;2023-02-02T07:49:06;15.70;;;11.73;;
47784;SDS011;35233;55.686;37.848;2023-02-02T07:51:31;14.35;;;11.98;;
47784;SDS011;35233;55.686;37.848;2023-02-02T07:53:57;15.50;;;12.00;;
47784;SDS011;35233;55.686;37.848;2023-02-02T07:56:24;15.35;;;11.63;;
47784;SDS011;35233;55.686;37.848;2023-02-02T07:58:52;14.25;;;11.38;;
47784;SDS011;35233;55.686;37.848;2023-02-02T08:01:19;16.35;;;11.57;;
47784;SDS011;35233;55.686;37.848;2023-02-02T08:03:47;15.27;;;11.80;;
47784;SDS011;35233;55.686;37.848;2023-02-02T08:06:17;15.88;;;12.40;;
47784;SDS011;35233;55.686;37.848;2023-02-02T08:08:45;17.45;;;13.25;;
47784;SDS011;35233;55.686;37.848;2023-02-02T08:11:12;16.98;;;12.95;;
47784;SDS011;35233;55.686;37.848;2023-02-02T08:13:39;16.17;;;12.23;;
47784;SDS011;35233;55.686;37.848;2023-02-02T08:16:06;16.60;;;12.75;;
47784;SDS011;35233;55.686;37.848;2023-02-02T08:18:32;17.65;;;12.75;;
47784;SDS011;35233;55.686;37.848;2023-02-02T08:20:59;18.85;;;13.27;;
47784;SDS011;35233;55.686;37.848;2023-02-02T08:23:26;16.98;;;12.68;;
47784;SDS011;35233;55.686;37.848;2023-02-02T08:25:52;17.92;;;12.32;;
47784;SDS011;35233;55.686;37.848;2023-02-02T08:28:18;16.45;;;12.70;;
47784;SDS011;35233;55.686;37.848;2023-02-02T08:30:44;18.02;;;12.52;;
47784;SDS011;35233;55.686;37.848;2023-02-02T08:33:09;17.08;;;13.15;;
47784;SDS011;35233;55.686;37.848;2023-02-02T08:35:41;16.75;;;13.02;;
47784;SDS011;35233;55.686;37.848;2023-02-02T08:38:08;15.02;;;11.90;;
47784;SDS011;35233;55.686;37.848;2023-02-02T08:40:34;18.25;;;12.60;;
47784;SDS011;35233;55.686;37.848;2023-02-02T08:43:00;17.50;;;13.10;;
47784;SDS011;35233;55.686;37.848;2023-02-02T08:45:27;15.80;;;11.68;;
47784;SDS011;35233;55.686;37.848;2023-02-02T08:47:53;16.80;;;11.30;;
47784;SDS011;35233;55.686;37.848;2023-02-02T08:50:19;15.75;;;11.63;;
47784;SDS011;35233;55.686;37.848;2023-02-02T08:52:44;17.73;;;12.07;;
47784;SDS011;35233;55.686;37.848;2023-02-02T08:55:10;15.07;;;12.25;;
47784;SDS011;35233;55.686;37.848;2023-02-02T08:57:35;13.70;;;10.88;;
47784;SDS011;35233;55.686;37.848;2023-02-02T09:00:02;15.50;;;11.50;;
47784;SDS011;35233;55.686;37.848;2023-02-02T09:02:28;14.63;;;11.52;;
47784;SDS011;35233;55.686;37.848;2023-02-02T09:04:54;15.65;;;10.73;;
47784;SDS011;35233;55.686;37.848;2023-02-02T09:07:20;13.88;;;10.60;;
47784;SDS011;35233;55.686;37.848;2023-02-02T09:09:45;16.08;;;10.65;;
47784;SDS011;35233;55.686;37.848;2023-02-02T09:12:11;14.27;;;11.00;;
47784;SDS011;35233;55.686;37.848;2023-02-02T09:14:36;14.73;;;10.98;;
47784;SDS011;35233;55.686;37.848;2023-02-02T09:17:02;15.07;;;11.23;;
47784;SDS011;35233;55.686;37.848;2023-02-02T09:19:27;15.65;;;12.52;;
47784;SDS011;35233;55.686;37.848;2023-02-02T09:21:53;16.25;;;12.02;;
47784;SDS011;35233;55.686;37.848;2023-02-02T09:24:18;15.57;;;11.88;;
47784;SDS011;35233;55.686;37.848;2023-02-02T09:26:44;18.85;;;13.18;;
47784;SDS011;35233;55.686;37.848;2023-02-02T09:29:11;16.15;;;12.40;;
47784;SDS011;35233;55.686;37.848;2023-02-02T09:31:38;14.82;;;11.95;;
47784;SDS011;35233;55.686;37.848;2023-02-02T09:34:05;15.52;;;12.05;;
47784;SDS011;35233;55.686;37.848;2023-02-02T09:36:33;17.02;;;11.75;;
47784;SDS011;35233;55.686;37.848;2023-02-02T09:39:00;16.73;;;12.30;;
47784;SDS011;35233;55.686;37.848;2023-02-02T09:44:01;15.02;;;10.80;;
47784;SDS011;35233;55.686;37.848;2023-02-02T09:49:05;17.90;;;12.90;;
47784;SDS011;35233;55.686;37.848;2023-02-02T09:51:38;17.38;;;12.82;;
47784;SDS011;35233;55.686;37.848;2023-02-02T09:54:20;17.90;;;12.48;;
47784;SDS011;35233;55.686;37.848;2023-02-02T09:56:52;16.38;;;12.52;;
47784;SDS011;35233;55.686;37.848;2023-02-02T09:59:26;15.40;;;12.35;;
47784;SDS011;35233;55.686;37.848;2023-02-02T10:01:59;17.00;;;13.05;;
47784;SDS011;35233;55.686;37.848;2023-02-02T10:04:35;17.13;;;13.18;;
47784;SDS011;35233;55.686;37.848;2023-02-02T10:07:18;17.60;;;12.43;;
47784;SDS011;35233;55.686;37.848;2023-02-02T10:09:56;17.40;;;13.10;;
47784;SDS011;35233;55.686;37.848;2023-02-02T10:20:50;17.48;;;13.43;;
47784;SDS011;35233;55.686;37.848;2023-02-02T10:23:37;16.90;;;12.23;;
47784;SDS011;35233;55.686;37.848;2023-02-02T10:34:13;14.27;;;11.10;;
47784;SDS011;35233;55.686;37.848;2023-02-02T10:39:43;13.98;;;11.13;;
47784;SDS011;35233;55.686;37.848;2023-02-02T10:45:35;15.48;;;11.70;;
47784;SDS011;35233;55.686;37.848;2023-02-02T10:48:04;13.90;;;10.68;;
47784;SDS011;35233;55.686;37.848;2023-02-02T10:50:41;13.43;;;10.57;;
47784;SDS011;35233;55.686;37.848;2023-02-02T10:53:12;14.32;;;10.30;;
47784;SDS011;35233;55.686;37.848;2023-02-02T10:55:40;13.45;;;10.32;;
47784;SDS011;35233;55.686;37.848;2023-02-02T11:03:10;13.30;;;10.40;;
47784;SDS011;35233;55.686;37.848;2023-02-02T11:05:38;12.05;;;9.50;;
47784;SDS011;35233;55.686;37.848;2023-02-02T11:16:35;13.63;;;9.95;;
47784;SDS011;35233;55.686;37.848;2023-02-02T11:19:06;11.98;;;9.48;;
47784;SDS011;35233;55.686;37.848;2023-02-02T11:21:50;11.43;;;9.18;;
47784;SDS011;35233;55.686;37.848;2023-02-02T11:27:13;13.05;;;9.75;;
47784;SDS011;35233;55.686;37.848;2023-02-02T11:29:57;14.27;;;10.32;;
47784;SDS011;35233;55.686;37.848;2023-02-02T11:37:31;13.52;;;10.25;;
47784;SDS011;35233;55.686;37.848;2023-02-02T11:42:48;15.20;;;10.95;;
47784;SDS011;35233;55.686;37.848;2023-02-02T11:45:16;14.32;;;10.98;;
47784;SDS011;35233;55.686;37.848;2023-02-02T11:47:44;14.30;;;10.90;;
47784;SDS011;35233;55.686;37.848;2023-02-02T11:50:19;15.55;;;11.60;;
47784;SDS011;35233;55.686;37.848;2023-02-02T11:52:50;14.95;;;10.98;;
47784;SDS011;35233;55.686;37.848;2023-02-02T11:55:17;15.93;;;10.95;;
47784;SDS011;35233;55.686;37.848;2023-02-02T12:01:02;15.95;;;11.27;;
47784;SDS011;35233;55.686;37.848;2023-02-02T12:03:29;15.32;;;11.43;;
47784;SDS011;35233;55.686;37.848;2023-02-02T12:05:59;14.27;;;10.77;;
47784;SDS011;35233;55.686;37.848;2023-02-02T12:08:41;15.02;;;11.05;;
47784;SDS011;35233;55.686;37.848;2023-02-02T12:11:07;14.50;;;10.93;;
47784;SDS011;35233;55.686;37.848;2023-02-02T12:27:51;15.55;;;11.70;;
47784;SDS011;35233;55.686;37.848;2023-02-02T12:30:37;15.82;;;11.60;;
47784;SDS011;35233;55.686;37.848;2023-02-02T12:43:44;17.60;;;12.20;;
47784;SDS011;35233;55.686;37.848;2023-02-02T12:49:16;14.75;;;11.88;;
47784;SDS011;35233;55.686;37.848;2023-02-02T12:54:58;15.23;;;11.70;;
47784;SDS011;35233;55.686;37.848;2023-02-02T12:57:35;16.60;;;11.90;;
47784;SDS011;35233;55.686;37.848;2023-02-02T13:00:22;14.77;;;11.60;;
47784;SDS011;35233;55.686;37.848;2023-02-02T13:03:20;14.88;;;10.93;;
47784;SDS011;35233;55.686;37.848;2023-02-02T13:11:17;15.02;;;11.07;;
47784;SDS011;35233;55.686;37.848;2023-02-02T13:13:56;14.07;;;10.65;;
47784;SDS011;35233;55.686;37.848;2023-02-02T13:16:42;13.73;;;10.18;;
47784;SDS011;35233;55.686;37.848;2023-02-02T13:19:20;15.15;;;10.60;;
47784;SDS011;35233;55.686;37.848;2023-02-02T13:21:53;14.45;;;10.57;;
47784;SDS011;35233;55.686;37.848;2023-02-02T13:24:23;17.42;;;11.20;;
47784;SDS011;35233;55.686;37.848;2023-02-02T13:26:55;14.75;;;10.82;;
47784;SDS011;35233;55.686;37.848;2023-02-02T13:29:37;14.20;;;10.50;;
47784;SDS011;35233;55.686;37.848;2023-02-02T13:32:29;13.77;;;10.45;;
47784;SDS011;35233;55.686;37.848;2023-02-02T13:35:21;13.20;;;10.30;;
47784;SDS011;35233;55.686;37.848;2023-02-02T13:37:54;13.73;;;10.25;;
47784;SDS011;35233;55.686;37.848;2023-02-02T13:40:30;13.27;;;9.77;;
47784;SDS011;35233;55.686;37.848;2023-02-02T13:56:36;12.95;;;9.48;;
47784;SDS011;35233;55.686;37.848;2023-02-02T13:59:22;14.07;;;10.10;;
47784;SDS011;35233;55.686;37.848;2023-02-02T14:02:00;13.68;;;9.88;;
47784;SDS011;35233;55.686;37.848;2023-02-02T14:04:40;13.23;;;9.57;;
47784;SDS011;35233;55.686;37.848;2023-02-02T14:07:06;13.18;;;9.05;;
47784;SDS011;35233;55.686;37.848;2023-02-02T14:09:37;13.20;;;8.90;;
47784;SDS011;35233;55.686;37.848;2023-02-02T14:15:57;11.05;;;8.05;;
47784;SDS011;35233;55.686;37.848;2023-02-02T14:26:48;10.98;;;8.25;;
47784;SDS011;35233;55.686;37.848;2023-02-02T14:47:07;10.45;;;7.97;;
47784;SDS011;35233;55.686;37.848;2023-02-02T14:50:15;11.32;;;7.93;;
47784;SDS011;35233;55.686;37.848;2023-02-02T14:52:55;10.00;;;7.88;;
47784;SDS011;35233;55.686;37.848;2023-02-02T14:55:24;11.75;;;8.93;;
47784;SDS011;35233;55.686;37.848;2023-02-02T14:58:00;14.85;;;10.10;;
47784;SDS011;35233;55.686;37.848;2023-02-02T15:00:30;15.38;;;10.65;;
47784;SDS011;35233;55.686;37.848;2023-02-02T15:06:03;15.07;;;11.68;;
47784;SDS011;35233;55.686;37.848;2023-02-02T15:08:37;16.70;;;11.80;;
47784;SDS011;35233;55.686;37.848;2023-02-02T15:11:04;16.80;;;12.18;;
47784;SDS011;35233;55.686;37.848;2023-02-02T15:14:02;15.80;;;11.90;;
47784;SDS011;35233;55.686;37.848;2023-02-02T15:16:37;15.43;;;11.10;;
47784;SDS011;35233;55.686;37.848;2023-02-02T15:19:06;15.30;;;11.18;;
47784;SDS011;35233;55.686;37.848;2023-02-02T15:21:39;15.80;;;11.25;;
47784;SDS011;35233;55.686;37.848;2023-02-02T15:24:19;15.48;;;11.20;;
47784;SDS011;35233;55.686;37.848;2023-02-02T15:26:50;14.50;;;10.55;;
47784;SDS011;35233;55.686;37.848;2023-02-02T15:29:20;15.73;;;11.25;;
47784;SDS011;35233;55.686;37.848;2023-02-02T15:32:06;15.15;;;11.07;;
47784;SDS011;35233;55.686;37.848;2023-02-02T15:34:51;15.20;;;10.52;;
47784;SDS011;35233;55.686;37.848;2023-02-02T15:37:25;14.13;;;10.25;;
47784;SDS011;35233;55.686;37.848;2023-02-02T15:39:58;14.10;;;10.77;;
47784;SDS011;35233;55.686;37.848;2023-02-02T15:42:32;13.93;;;10.23;;
47784;SDS011;35233;55.686;37.848;2023-02-02T15:47:53;14.48;;;11.27;;
47784;SDS011;35233;55.686;37.848;2023-02-02T15:50:20;15.13;;;10.98;;
47784;SDS011;35233;55.686;37.848;2023-02-02T15:52:47;15.60;;;11.13;;
47784;SDS011;35233;55.686;37.848;2023-02-02T15:55:19;14.88;;;11.52;;
47784;SDS011;35233;55.686;37.848;2023-02-02T15:57:47;16.42;;;10.95;;
47784;SDS011;35233;55.686;37.848;2023-02-02T16:07:59;16.60;;;12.15;;
47784;SDS011;35233;55.686;37.848;2023-02-02T16:10:26;15.52;;;11.43;;
47784;SDS011;35233;55.686;37.848;2023-02-02T16:12:52;16.45;;;11.93;;
47784;SDS011;35233;55.686;37.848;2023-02-02T16:15:20;17.17;;;12.05;;
47784;SDS011;35233;55.686;37.848;2023-02-02T16:17:58;14.85;;;11.73;;
47784;SDS011;35233;55.686;37.848;2023-02-02T16:20:24;16.25;;;11.95;;
47784;SDS011;35233;55.686;37.848;2023-02-02T16:22:51;18.63;;;12.02;;
47784;SDS011;35233;55.686;37.848;2023-02-02T16:25:20;16.42;;;12.10;;
47784;SDS011;35233;55.686;37.848;2023-02-02T16:28:05;17.88;;;12.45;;
47784;SDS011;35233;55.686;37.848;2023-02-02T16:30:44;15.27;;;11.48;;
47784;SDS011;35233;55.686;37.848;2023-02-02T16:36:17;15.05;;;11.10;;
47784;SDS011;35233;55.686;37.848;2023-02-02T16:38:45;19.35;;;12.60;;
47784;SDS011;35233;55.686;37.848;2023-02-02T16:41:24;17.02;;;11.98;;
47784;SDS011;35233;55.686;37.848;2023-02-02T16:47:37;16.98;;;12.55;;
47784;SDS011;35233;55.686;37.848;2023-02-02T16:52:49;17.25;;;11.35;;
47784;SDS011;35233;55.686;37.848;2023-02-02T16:55:32;19.45;;;13.05;;
47784;SDS011;35233;55.686;37.848;2023-02-02T16:58:11;18.52;;;12.35;;
47784;SDS011;35233;55.686;37.848;2023-02-02T17:00:48;16.30;;;11.88;;
47784;SDS011;35233;55.686;37.848;2023-02-02T17:03:29;16.13;;;11.70;;
47784;SDS011;35233;55.686;37.848;2023-02-02T17:06:05;15.63;;;11.23;;
47784;SDS011;35233;55.686;37.848;2023-02-02T17:08:35;17.45;;;11.63;;
47784;SDS011;35233;55.686;37.848;2023-02-02T17:11:26;16.42;;;11.65;;
47784;SDS011;35233;55.686;37.848;2023-02-02T17:13:52;16.27;;;12.00;;
47784;SDS011;35233;55.686;37.848;2023-02-02T17:16:22;16.45;;;11.63;;
47784;SDS011;35233;55.686;37.848;2023-02-02T17:18:49;16.58;;;11.27;;
47784;SDS011;35233;55.686;37.848;2023-02-02T17:21:19;16.02;;;11.27;;
47784;SDS011;35233;55.686;37.848;2023-02-02T17:23:48;15.95;;;11.65;;
47784;SDS011;35233;55.686;37.848;2023-02-02T17:26:15;14.70;;;10.75;;
47784;SDS011;35233;55.686;37.848;2023-02-02T17:28:41;14.85;;;10.98;;
47784;SDS011;35233;55.686;37.848;2023-02-02T17:31:09;15.27;;;10.63;;